createdAt,value
2023-03-06T00:00:46.854Z,22.20
2023-03-06T00:03:15.285Z,26.60
2023-03-06T00:05:44.829Z,25.90
2023-03-06T00:08:13.411Z,26.10
2023-03-06T00:10:49.822Z,23.50
2023-03-06T00:13:20.200Z,24.10
2023-03-06T00:15:50.253Z,20.20
2023-03-06T00:18:19.705Z,20.20
2023-03-06T00:20:50.354Z,21.00
2023-03-06T00:23:19.796Z,22.50
2023-03-06T00:25:49.964Z,22.60
2023-03-06T00:28:19.099Z,22.50
2023-03-06T00:30:49.213Z,25.90
2023-03-06T00:33:22.538Z,27.60
2023-03-06T00:35:50.833Z,26.10
2023-03-06T00:38:19.047Z,25.40
2023-03-06T00:40:47.740Z,21.10
2023-03-06T00:43:16.852Z,19.40
2023-03-06T00:45:45.016Z,18.20
2023-03-06T00:48:14.193Z,19.80
2023-03-06T00:50:42.505Z,18.70
2023-03-06T00:53:13.441Z,21.30
2023-03-06T00:55:44.475Z,22.00
2023-03-06T00:58:14.291Z,21.20
2023-03-06T01:00:42.547Z,21.70
2023-03-06T01:03:10.747Z,20.90
2023-03-06T01:05:40.191Z,20.80
2023-03-06T01:08:08.946Z,22.40
2023-03-06T01:10:39.072Z,22.20
2023-03-06T01:13:07.606Z,20.30
2023-03-06T01:15:37.734Z,18.80
2023-03-06T01:18:05.999Z,21.60
2023-03-06T01:20:37.551Z,21.80
2023-03-06T01:23:05.839Z,22.90
2023-03-06T01:25:34.209Z,20.10
2023-03-06T01:28:02.754Z,17.40
2023-03-06T01:30:31.554Z,18.00
2023-03-06T01:33:00.587Z,19.40
2023-03-06T01:35:29.751Z,19.70
2023-03-06T01:38:02.271Z,23.30
2023-03-06T01:40:33.165Z,30.80
2023-03-06T01:43:11.744Z,34.20
2023-03-06T01:45:40.001Z,33.50
2023-03-06T01:48:08.369Z,36.50
2023-03-06T01:50:36.800Z,28.90
2023-03-06T01:53:06.280Z,28.40
2023-03-06T01:55:34.484Z,25.70
2023-03-06T01:58:05.324Z,25.40
2023-03-06T02:00:38.402Z,25.30
2023-03-06T02:03:14.726Z,25.40
2023-03-06T02:05:43.366Z,25.80
2023-03-06T02:08:31.383Z,26.50
2023-03-06T02:11:09.649Z,22.40
2023-03-06T02:13:38.300Z,24.30
2023-03-06T02:16:07.022Z,21.90
2023-03-06T02:18:35.950Z,17.10
2023-03-06T02:21:06.196Z,16.30
2023-03-06T02:23:46.048Z,14.70
2023-03-06T02:26:15.248Z,12.80
2023-03-06T02:28:43.497Z,15.50
2023-03-06T02:31:20.538Z,15.80
2023-03-06T02:34:53.527Z,12.40
2023-03-06T02:37:22.887Z,12.60
2023-03-06T02:40:08.324Z,12.60
2023-03-06T02:42:37.273Z,13.40
2023-03-06T02:45:05.727Z,14.40
2023-03-06T02:47:33.903Z,14.90
2023-03-06T02:50:02.440Z,14.90
2023-03-06T02:52:30.931Z,14.40
2023-03-06T02:54:59.138Z,15.20
2023-03-06T02:57:28.008Z,15.50
2023-03-06T02:59:57.181Z,15.40
2023-03-06T03:02:25.758Z,13.90
2023-03-06T03:04:54.101Z,16.40
2023-03-06T03:07:24.521Z,16.00
2023-03-06T03:09:53.834Z,16.80
2023-03-06T03:12:22.995Z,17.70
2023-03-06T03:14:51.228Z,17.80
2023-03-06T03:17:19.522Z,17.40
2023-03-06T03:19:48.364Z,17.50
2023-03-06T03:22:17.044Z,19.00
2023-03-06T03:24:47.788Z,18.30
2023-03-06T03:27:16.466Z,17.30
2023-03-06T03:29:45.101Z,17.70
2023-03-06T03:32:13.584Z,17.30
2023-03-06T03:34:42.593Z,16.90
2023-03-06T03:37:10.957Z,17.50
2023-03-06T03:39:39.563Z,18.70
2023-03-06T03:42:09.540Z,19.80
2023-03-06T03:44:38.202Z,19.40
2023-03-06T03:47:07.211Z,18.80
2023-03-06T03:49:35.704Z,19.20
2023-03-06T03:52:06.401Z,18.20
2023-03-06T03:54:35.639Z,17.50
2023-03-06T03:57:03.882Z,17.10
2023-03-06T03:59:36.797Z,15.70
2023-03-06T04:02:17.127Z,15.50
2023-03-06T04:04:51.780Z,15.80
2023-03-06T04:07:20.385Z,16.10
2023-03-06T04:09:49.566Z,16.00
2023-03-06T04:12:19.228Z,16.10
2023-03-06T04:14:56.320Z,15.10
2023-03-06T04:17:24.556Z,11.60
2023-03-06T04:19:53.168Z,9.30
2023-03-06T04:22:21.697Z,8.60
2023-03-06T04:24:50.324Z,8.40
2023-03-06T04:27:18.762Z,9.10
2023-03-06T04:29:47.001Z,8.70
2023-03-06T04:32:15.810Z,9.10
2023-03-06T04:34:44.236Z,11.00
2023-03-06T04:37:20.589Z,9.80
2023-03-06T04:39:49.362Z,9.10
2023-03-06T04:42:21.060Z,10.20
2023-03-06T04:44:49.342Z,11.10
2023-03-06T04:47:19.103Z,12.80
2023-03-06T04:49:47.588Z,12.70
2023-03-06T04:52:15.796Z,11.20
2023-03-06T04:54:44.054Z,10.60
2023-03-06T04:57:14.260Z,11.40
2023-03-06T04:59:42.778Z,11.80
2023-03-06T05:02:11.697Z,11.80
2023-03-06T05:04:40.172Z,12.00
2023-03-06T05:07:08.774Z,12.20
2023-03-06T05:09:39.170Z,12.70
2023-03-06T05:12:07.674Z,13.70
2023-03-06T05:14:35.965Z,16.50
2023-03-06T05:17:06.971Z,17.90
2023-03-06T05:19:36.382Z,16.40
2023-03-06T05:22:05.431Z,15.30
2023-03-06T05:24:33.932Z,15.10
2023-03-06T05:27:02.471Z,13.00
2023-03-06T05:29:30.579Z,11.40
2023-03-06T05:32:00.994Z,11.00
2023-03-06T05:34:30.144Z,11.00
2023-03-06T05:36:58.337Z,10.90
2023-03-06T05:39:27.420Z,10.30
2023-03-06T05:41:55.932Z,9.30
2023-03-06T05:44:30.229Z,9.70
2023-03-06T05:46:58.924Z,9.40
2023-03-06T05:49:27.171Z,9.40
2023-03-06T05:51:55.787Z,11.80
2023-03-06T05:54:26.407Z,12.20
2023-03-06T05:56:57.362Z,13.40
2023-03-06T05:59:28.595Z,10.70
2023-03-06T06:01:57.184Z,10.00
2023-03-06T06:04:26.540Z,8.80
2023-03-06T06:06:58.463Z,8.50
2023-03-06T06:09:28.600Z,8.70
2023-03-06T06:11:58.020Z,8.20
2023-03-06T06:14:28.847Z,7.90
2023-03-06T06:16:59.971Z,7.90
2023-03-06T06:19:31.340Z,8.40
2023-03-06T06:22:02.850Z,8.20
2023-03-06T06:24:31.126Z,8.80
2023-03-06T06:27:03.340Z,9.10
2023-03-06T06:29:33.101Z,8.80
2023-03-06T06:32:01.401Z,7.80
2023-03-06T06:34:32.044Z,8.40
2023-03-06T06:37:00.513Z,9.20
2023-03-06T06:39:29.797Z,10.40
2023-03-06T06:42:20.171Z,10.60
2023-03-06T06:44:47.810Z,12.90
2023-03-06T06:47:25.083Z,13.00
2023-03-06T06:49:54.110Z,15.70
2023-03-06T06:52:24.252Z,21.10
2023-03-06T06:54:52.949Z,30.00
2023-03-06T06:57:22.223Z,27.20
2023-03-06T06:59:53.330Z,20.40
2023-03-06T07:02:22.728Z,19.70
2023-03-06T07:05:03.156Z,19.80
2023-03-06T07:07:36.718Z,23.00
2023-03-06T07:10:05.672Z,23.20
2023-03-06T07:12:35.948Z,21.00
2023-03-06T07:15:05.399Z,21.30
2023-03-06T07:17:33.908Z,17.30
2023-03-06T07:20:04.652Z,18.60
2023-03-06T07:22:41.536Z,20.90
2023-03-06T07:25:13.539Z,12.80
2023-03-06T07:27:45.463Z,10.50
2023-03-06T07:30:15.329Z,12.40
2023-03-06T07:32:44.352Z,8.60
2023-03-06T07:35:20.046Z,8.40
2023-03-06T07:37:50.080Z,5.30
2023-03-06T07:40:20.706Z,6.30
2023-03-06T07:42:49.441Z,5.50
2023-03-06T07:45:20.318Z,5.20
2023-03-06T07:47:51.656Z,6.90
2023-03-06T07:50:19.866Z,9.40
2023-03-06T07:52:49.182Z,7.70
2023-03-06T07:55:17.607Z,4.70
2023-03-06T07:57:45.693Z,5.20
2023-03-06T08:00:15.060Z,5.30
2023-03-06T08:02:44.881Z,4.30
2023-03-06T08:05:14.462Z,4.90
2023-03-06T08:07:46.930Z,3.70
2023-03-06T08:10:16.096Z,3.40
2023-03-06T08:12:44.933Z,3.90
2023-03-06T08:15:16.384Z,4.20
2023-03-06T08:17:45.526Z,4.10
2023-03-06T08:20:14.657Z,4.80
2023-03-06T08:22:43.719Z,4.30
2023-03-06T08:25:13.513Z,4.20
2023-03-06T08:27:41.855Z,5.30
2023-03-06T08:30:10.229Z,5.00
2023-03-06T08:32:39.049Z,4.60
2023-03-06T08:35:07.472Z,5.40
2023-03-06T08:37:39.469Z,5.80
2023-03-06T08:40:08.508Z,4.70
2023-03-06T08:42:38.170Z,5.80
2023-03-06T08:45:07.035Z,5.30
2023-03-06T08:47:35.714Z,5.70
2023-03-06T08:50:08.396Z,5.60
2023-03-06T08:52:36.780Z,5.70
2023-03-06T08:55:06.625Z,5.80
2023-03-06T08:57:47.128Z,6.20
2023-03-06T09:00:16.861Z,5.50
2023-03-06T09:02:45.968Z,5.70
2023-03-06T09:05:15.220Z,5.80
2023-03-06T09:07:44.142Z,5.10
2023-03-06T09:10:18.227Z,5.60
2023-03-06T09:12:52.066Z,4.90
2023-03-06T09:15:25.286Z,4.50
2023-03-06T09:17:55.885Z,6.70
2023-03-06T09:20:27.933Z,6.60
2023-03-06T09:22:56.844Z,6.20
2023-03-06T09:25:29.835Z,5.60
2023-03-06T09:28:11.026Z,5.70
2023-03-06T09:30:47.152Z,5.30
2023-03-06T09:33:17.226Z,4.40
2023-03-06T09:35:48.436Z,5.60
2023-03-06T09:38:19.387Z,4.80
2023-03-06T09:40:56.833Z,4.30
2023-03-06T09:43:41.826Z,4.90
2023-03-06T09:46:13.568Z,4.60
2023-03-06T09:49:00.345Z,4.90
2023-03-06T09:51:33.903Z,5.00
2023-03-06T09:54:15.463Z,5.30
2023-03-06T09:56:51.990Z,4.50
2023-03-06T09:59:24.514Z,6.40
2023-03-06T10:02:07.449Z,5.20
2023-03-06T10:04:46.709Z,6.20
2023-03-06T10:07:18.599Z,6.10
2023-03-06T10:09:47.209Z,5.70
2023-03-06T10:12:18.217Z,5.60
2023-03-06T10:14:55.467Z,5.30
2023-03-06T10:17:26.470Z,4.70
2023-03-06T10:19:55.337Z,4.60
2023-03-06T10:22:39.612Z,5.00
2023-03-06T10:25:28.198Z,5.60
2023-03-06T10:27:58.157Z,4.70
2023-03-06T10:30:41.041Z,4.70
2023-03-06T10:33:11.958Z,4.90
2023-03-06T10:35:49.378Z,4.70
2023-03-06T10:38:28.380Z,5.00
2023-03-06T10:41:01.782Z,5.20
2023-03-06T10:43:30.363Z,4.80
2023-03-06T10:46:00.345Z,4.80
2023-03-06T10:48:29.954Z,5.30
2023-03-06T10:51:18.021Z,5.70
2023-03-06T10:54:06.328Z,4.80
2023-03-06T10:56:37.447Z,4.90
2023-03-06T10:59:07.006Z,4.90
2023-03-06T11:01:44.626Z,6.80
2023-03-06T11:04:17.720Z,6.90
2023-03-06T11:06:46.395Z,5.90
2023-03-06T11:09:22.668Z,6.60
2023-03-06T11:11:51.178Z,6.00
2023-03-06T11:14:27.644Z,6.40
2023-03-06T11:16:58.451Z,7.70
2023-03-06T11:19:28.178Z,6.10
2023-03-06T11:22:04.481Z,4.40
2023-03-06T11:24:38.296Z,5.30
2023-03-06T11:27:30.566Z,4.90
2023-03-06T11:29:59.372Z,4.60
2023-03-06T11:32:29.303Z,4.60
2023-03-06T11:35:19.542Z,4.10
2023-03-06T11:37:48.079Z,4.30
2023-03-06T11:40:43.926Z,4.10
2023-03-06T11:43:34.102Z,5.40
2023-03-06T11:46:04.806Z,5.50
2023-03-06T11:48:37.037Z,6.00
2023-03-06T11:51:20.060Z,4.30
2023-03-06T11:53:52.696Z,5.70
2023-03-06T11:56:28.840Z,5.30
2023-03-06T11:59:09.809Z,4.40
2023-03-06T12:02:01.259Z,4.60
2023-03-06T12:04:42.502Z,4.70
2023-03-06T12:07:22.380Z,5.00
2023-03-06T12:10:17.030Z,4.00
2023-03-06T12:12:53.786Z,4.90
2023-03-06T12:15:58.081Z,5.40
2023-03-06T12:18:35.808Z,3.30
2023-03-06T12:21:06.891Z,5.10
2023-03-06T12:23:43.249Z,14.30
2023-03-06T12:26:31.072Z,5.20
2023-03-06T12:29:06.421Z,5.60
2023-03-06T12:31:50.501Z,5.60
2023-03-06T12:34:30.410Z,5.20
2023-03-06T12:37:11.274Z,5.00
2023-03-06T12:39:53.426Z,5.50
2023-03-06T12:42:25.097Z,5.10
2023-03-06T12:44:59.589Z,4.80
2023-03-06T12:47:28.642Z,4.10
2023-03-06T12:49:59.557Z,5.10
2023-03-06T12:52:30.729Z,4.80
2023-03-06T12:55:04.094Z,4.70
2023-03-06T12:57:32.708Z,4.40
2023-03-06T13:00:01.012Z,4.80
2023-03-06T13:02:32.468Z,4.50
2023-03-06T13:05:07.075Z,5.30
2023-03-06T13:08:05.168Z,5.20
2023-03-06T13:10:35.182Z,5.10
2023-03-06T13:13:25.542Z,4.90
2023-03-06T13:16:32.819Z,5.00
2023-03-06T13:19:01.038Z,5.20
2023-03-06T13:21:46.455Z,5.10
2023-03-06T13:24:24.406Z,5.20
2023-03-06T13:27:08.729Z,4.30
2023-03-06T13:29:38.695Z,4.60
2023-03-06T13:32:14.872Z,4.40
2023-03-06T13:34:47.106Z,4.60
2023-03-06T13:37:23.783Z,6.90
2023-03-06T13:39:52.645Z,6.50
2023-03-06T13:42:30.289Z,4.80
2023-03-06T13:45:00.073Z,5.40
2023-03-06T13:47:34.484Z,5.10
2023-03-06T13:50:25.845Z,5.60
2023-03-06T13:53:18.594Z,5.20
2023-03-06T13:56:06.656Z,5.20
2023-03-06T13:58:50.194Z,4.90
2023-03-06T14:01:21.487Z,5.00
2023-03-06T14:03:59.363Z,6.20
2023-03-06T14:06:38.634Z,5.90
2023-03-06T14:09:13.998Z,5.60
2023-03-06T14:11:46.456Z,5.10
2023-03-06T14:14:15.010Z,5.10
2023-03-06T14:16:50.148Z,5.50
2023-03-06T14:19:18.935Z,5.80
2023-03-06T14:21:50.183Z,5.90
2023-03-06T14:24:19.464Z,7.10
2023-03-06T14:26:49.744Z,7.60
2023-03-06T14:29:24.859Z,11.10
2023-03-06T14:31:57.926Z,7.60
2023-03-06T14:34:29.959Z,9.00
2023-03-06T14:37:03.539Z,18.30
2023-03-06T14:39:36.475Z,11.50
2023-03-06T14:42:29.738Z,9.60
2023-03-06T14:45:16.131Z,9.40
2023-03-06T14:47:52.809Z,10.10
2023-03-06T14:53:26.127Z,10.60
2023-03-06T14:56:00.264Z,9.90
2023-03-06T14:58:31.466Z,9.00
2023-03-06T15:01:02.153Z,8.40
2023-03-06T15:03:44.540Z,7.60
2023-03-06T15:06:18.092Z,6.90
2023-03-06T15:08:46.813Z,7.20
2023-03-06T15:14:10.255Z,6.60
2023-03-06T15:16:38.717Z,6.60
2023-03-06T15:19:15.238Z,7.60
2023-03-06T15:21:46.279Z,7.40
2023-03-06T15:24:43.681Z,8.20
2023-03-06T15:27:16.711Z,7.70
2023-03-06T15:29:44.993Z,6.70
2023-03-06T15:32:14.435Z,7.30
2023-03-06T15:34:42.838Z,7.40
2023-03-06T15:54:56.173Z,18.20
2023-03-06T15:57:25.432Z,19.50
2023-03-06T15:59:53.945Z,17.20
2023-03-06T16:02:24.588Z,18.00
2023-03-06T16:04:53.217Z,17.90
2023-03-06T16:07:21.816Z,16.90
2023-03-06T16:09:50.562Z,17.40
2023-03-06T16:12:19.721Z,14.40
2023-03-06T16:14:48.082Z,14.90
2023-03-06T16:17:16.853Z,15.50
2023-03-06T16:19:46.051Z,14.50
2023-03-06T16:22:14.565Z,13.60
2023-03-06T16:24:43.704Z,15.00
2023-03-06T16:27:17.936Z,16.40
2023-03-06T16:29:49.587Z,15.40
2023-03-06T16:32:18.419Z,19.80
2023-03-06T16:34:46.619Z,19.10
2023-03-06T16:37:17.066Z,16.60
2023-03-06T16:39:45.909Z,15.40
2023-03-06T16:42:16.533Z,15.70
2023-03-06T16:44:44.698Z,17.40
2023-03-06T16:47:16.999Z,17.40
2023-03-06T16:49:45.206Z,18.10
2023-03-06T16:52:13.808Z,18.40
2023-03-06T16:54:44.771Z,18.60
2023-03-06T16:57:16.012Z,17.50
2023-03-06T16:59:44.231Z,17.60
2023-03-06T17:02:12.667Z,18.80
2023-03-06T17:04:41.059Z,17.00
2023-03-06T17:07:10.614Z,17.60
2023-03-06T17:09:40.388Z,16.20
2023-03-06T17:12:09.524Z,15.60
2023-03-06T17:14:38.647Z,14.60
2023-03-06T17:17:17.686Z,14.70
2023-03-06T17:19:51.230Z,14.10
2023-03-06T17:22:22.591Z,16.00
2023-03-06T17:24:52.323Z,15.30
2023-03-06T17:27:21.105Z,14.80
2023-03-06T17:29:51.400Z,15.90
2023-03-06T17:32:21.076Z,15.70
2023-03-06T17:34:49.591Z,14.90
2023-03-06T17:37:19.312Z,13.40
2023-03-06T17:39:49.861Z,14.70
2023-03-06T17:42:19.115Z,15.10
2023-03-06T17:44:48.131Z,19.00
2023-03-06T17:47:16.819Z,24.80
2023-03-06T17:49:45.225Z,20.60
2023-03-06T17:52:16.296Z,18.70
2023-03-06T17:54:45.100Z,15.80
2023-03-06T17:57:13.330Z,15.50
2023-03-06T17:59:46.992Z,16.50
2023-03-06T18:02:19.447Z,15.70
2023-03-06T18:04:47.815Z,13.50
2023-03-06T18:07:16.921Z,14.60
2023-03-06T18:09:46.786Z,16.00
2023-03-06T18:12:14.958Z,15.00
2023-03-06T18:14:43.466Z,15.00
2023-03-06T18:17:12.108Z,13.20
2023-03-06T18:19:41.457Z,12.30
2023-03-06T18:22:09.656Z,11.40
2023-03-06T18:24:38.166Z,10.80
2023-03-06T18:27:06.590Z,9.80
2023-03-06T18:29:36.980Z,9.20
2023-03-06T18:32:11.475Z,8.30
2023-03-06T18:34:39.563Z,8.30
2023-03-06T18:37:07.954Z,8.50
2023-03-06T18:39:38.292Z,8.70
2023-03-06T18:42:06.709Z,8.90
2023-03-06T18:44:35.806Z,9.70
2023-03-06T18:47:08.190Z,19.30
2023-03-06T18:49:39.936Z,20.20
2023-03-06T18:52:09.261Z,23.70
2023-03-06T18:54:37.765Z,24.30
2023-03-06T18:57:05.916Z,24.20
2023-03-06T18:59:55.480Z,21.90
2023-03-06T19:02:24.618Z,21.90
2023-03-06T19:04:56.055Z,22.90
2023-03-06T19:07:24.891Z,25.10
2023-03-06T19:09:53.361Z,23.90
2023-03-06T19:12:23.162Z,19.00
2023-03-06T19:14:52.094Z,16.00
2023-03-06T19:17:20.233Z,14.90
2023-03-06T19:19:52.028Z,15.30
2023-03-06T19:22:20.615Z,13.80
2023-03-06T19:24:50.205Z,14.00
2023-03-06T19:27:18.520Z,12.90
2023-03-06T19:29:46.732Z,12.00
2023-03-06T19:32:15.366Z,10.50
2023-03-06T19:34:44.063Z,12.00
2023-03-06T19:37:12.399Z,10.80
2023-03-06T19:39:40.890Z,9.90
2023-03-06T19:42:13.933Z,9.30
2023-03-06T19:44:42.243Z,9.50
2023-03-06T19:47:11.567Z,8.40
2023-03-06T19:49:42.064Z,8.30
2023-03-06T19:52:10.695Z,9.00
2023-03-06T19:54:39.036Z,8.00
2023-03-06T19:57:07.598Z,9.50
2023-03-06T19:59:39.318Z,9.20
2023-03-06T20:02:09.815Z,8.70
2023-03-06T20:04:38.028Z,9.00
2023-03-06T20:07:07.030Z,9.30
2023-03-06T20:09:35.406Z,7.80
2023-03-06T20:12:04.500Z,8.00
2023-03-06T20:14:34.866Z,8.60
2023-03-06T20:17:03.264Z,9.00
2023-03-06T20:19:34.521Z,9.00
2023-03-06T20:22:03.473Z,9.60
2023-03-06T20:24:32.028Z,9.60
2023-03-06T20:27:00.639Z,9.60
2023-03-06T20:29:29.180Z,9.40
2023-03-06T20:32:02.600Z,9.20
2023-03-06T20:34:32.051Z,10.20
2023-03-06T20:37:00.294Z,9.80
2023-03-06T20:39:28.473Z,8.40
2023-03-06T20:41:56.789Z,9.00
2023-03-06T20:44:25.173Z,8.70
2023-03-06T20:46:53.442Z,8.80
2023-03-06T20:49:25.537Z,8.90
2023-03-06T20:51:56.172Z,9.20
2023-03-06T20:54:24.655Z,9.00
2023-03-06T20:56:53.032Z,8.90
2023-03-06T20:59:21.260Z,8.00
2023-03-06T21:01:50.057Z,8.80
2023-03-06T21:04:18.229Z,8.00
2023-03-06T21:06:47.177Z,8.40
2023-03-06T21:09:16.197Z,10.80
2023-03-06T21:11:45.301Z,11.00
2023-03-06T21:14:14.892Z,11.40
2023-03-06T21:16:43.494Z,9.10
2023-03-06T21:19:20.097Z,8.90
2023-03-06T21:21:50.619Z,8.20
2023-03-06T21:24:21.187Z,8.90
2023-03-06T21:26:51.388Z,9.70
2023-03-06T21:29:19.686Z,8.90
2023-03-06T21:31:48.834Z,8.90
2023-03-06T21:34:17.531Z,9.70
2023-03-06T21:36:45.717Z,9.30
2023-03-06T21:39:14.045Z,8.70
2023-03-06T21:41:42.481Z,9.60
2023-03-06T21:44:11.950Z,8.60
2023-03-06T21:46:41.458Z,9.60
2023-03-06T21:49:09.653Z,10.10
2023-03-06T21:51:38.327Z,9.70
2023-03-06T21:54:06.765Z,10.00
2023-03-06T21:56:34.961Z,10.10
2023-03-06T21:59:03.105Z,10.90
2023-03-06T22:01:31.735Z,9.10
2023-03-06T22:04:00.650Z,9.80
2023-03-06T22:06:29.302Z,9.90
2023-03-06T22:08:59.395Z,10.70
2023-03-06T22:11:28.326Z,12.70
2023-03-06T22:13:58.535Z,12.20
2023-03-06T22:16:27.093Z,12.10
2023-03-06T22:18:55.523Z,11.90
2023-03-06T22:21:23.816Z,12.30
2023-03-06T22:23:53.841Z,11.70
2023-03-06T22:26:22.377Z,12.30
2023-03-06T22:28:53.071Z,12.80
2023-03-06T22:31:24.010Z,11.10
2023-03-06T22:33:52.905Z,11.20
2023-03-06T22:36:21.060Z,12.00
2023-03-06T22:38:52.991Z,10.30
2023-03-06T22:41:22.640Z,13.40
2023-03-06T22:43:50.882Z,15.10
2023-03-06T22:46:19.161Z,15.20
2023-03-06T22:48:47.416Z,14.10
2023-03-06T22:51:19.466Z,13.20
2023-03-06T22:53:52.233Z,15.10
2023-03-06T22:56:22.688Z,14.90
2023-03-06T22:58:51.242Z,14.20
2023-03-06T23:01:23.529Z,13.90
2023-03-06T23:03:52.452Z,13.80
2023-03-06T23:06:25.386Z,13.60
2023-03-06T23:08:59.217Z,14.00
2023-03-06T23:11:28.129Z,13.10
2023-03-06T23:14:17.213Z,13.40
2023-03-06T23:17:09.396Z,15.60
2023-03-06T23:19:56.328Z,15.40
2023-03-06T23:22:43.103Z,15.70
2023-03-06T23:25:30.813Z,41.60
2023-03-06T23:27:59.132Z,27.50
2023-03-06T23:30:28.029Z,22.70
2023-03-06T23:32:56.458Z,22.00
2023-03-06T23:35:25.077Z,25.20
2023-03-06T23:37:53.300Z,36.40
2023-03-06T23:40:22.228Z,39.60
2023-03-06T23:42:51.797Z,38.70
2023-03-06T23:45:20.347Z,35.70
2023-03-06T23:47:48.455Z,30.40
2023-03-06T23:50:16.933Z,22.70
2023-03-06T23:52:45.075Z,17.90
2023-03-06T23:55:14.187Z,13.90
2023-03-06T23:57:42.308Z,14.00
